CheckWX is a tool to help pilots better visualize weather data.  It is not intended as a substitute for an official pre-flight weather briefing.

02:49:55 UTC

KCNW METAR
Tstc Waco Airport
Waco, Texas, USA
Current

55 mins ago

KCNW 240155Z 16010KT 10SM SCT047 20/15 A3003
Observed
Mar-24 @ 01:55 UTC
Wind
  • 160° at 10 KTS
Visibility
10 SM
Flight Rules
VFR
Cloud Levels
  • Scattered at 4,700' AGL
Temperature
20°C / 68°F
Dewpoint
15°C / 59°F
Humidity
73%
Altimeter
30.03" Hg
Pressure
1016.92 hPa
Previous

2 hours ago

KCNW 240055Z 17010KT 10SM OVC050 21/15 A3003
Observed
Mar-24 @ 00:55 UTC
Wind
  • 170° at 10 KTS
Visibility
10 SM
Flight Rules
VFR
Cloud Levels
  • Overcast at 5,000' AGL
Temperature
21°C / 70°F
Dewpoint
15°C / 59°F
Humidity
69%
Altimeter
30.03" Hg
Pressure
1016.92 hPa
Previous

3 hours ago

KCNW 232355Z 16012G18KT 10SM OVC049 22/15 A3002
Observed
Mar-23 @ 23:55 UTC
Wind
  • 160° at 12 KTS
  • Gusting to 18 KTS
Visibility
10 SM
Flight Rules
VFR
Cloud Levels
  • Overcast at 4,900' AGL
Temperature
22°C / 72°F
Dewpoint
15°C / 59°F
Humidity
65%
Altimeter
30.02" Hg
Pressure
1016.62 hPa